Time;durP1;ratioP1;P1;durP2;ratioP2;P2;SDS_P1;SDS_P2;PMS_P1;PMS_P2;Temp;Humidity;BMP_temperature;BMP_pressure;BME280_temperature;BME280_humidity;BME280_pressure;Samples;Min_cycle;Max_cycle;Signal;HPM_P1;HPM_P2
2022/07/03 00:02:16;;;;;;;9.00;5.47;;;;;;;20.15;62.93;100147.34;4323815;33;34698;-84
2022/07/03 00:05:03;;;;;;;7.78;5.40;;;;;;;19.74;65.04;100143.22;4335427;33;35240;-85
2022/07/03 00:07:49;;;;;;;7.37;5.53;;;;;;;20.94;60.37;100140.62;4335043;33;34056;-85
2022/07/03 00:10:35;;;;;;;10.23;6.55;;;;;;;21.47;58.49;100142.81;4324785;33;34661;-85
2022/07/03 00:13:21;;;;;;;8.73;5.82;;;;;;;21.73;57.54;100137.28;4334848;33;35045;-85
2022/07/03 00:16:08;;;;;;;7.90;6.00;;;;;;;21.66;57.87;100145.53;4333689;33;35590;-85
2022/07/03 00:18:54;;;;;;;8.07;5.20;;;;;;;21.77;57.68;100137.31;4334184;33;33717;-84
2022/07/03 00:21:45;;;;;;;11.82;5.57;;;;;;;21.77;57.37;100142.91;4333354;33;34772;-84
2022/07/03 00:24:37;;;;;;;10.98;5.65;;;;;;;21.84;57.64;100142.22;4324046;33;34989;-84
2022/07/03 00:27:25;;;;;;;8.95;5.87;;;;;;;21.80;58.17;100139.38;4333672;33;35024;-84
2022/07/03 00:30:11;;;;;;;8.48;6.10;;;;;;;21.76;58.54;100125.37;4324485;33;34359;-85
2022/07/03 00:32:59;;;;;;;7.78;6.15;;;;;;;21.65;58.80;100127.19;4321698;33;34774;-86
2022/07/03 00:35:47;;;;;;;8.05;6.00;;;;;;;21.64;58.54;100127.56;4314784;33;34472;-85
2022/07/03 00:38:33;;;;;;;6.97;5.62;;;;;;;21.49;59.20;100130.12;4333225;33;36942;-85
2022/07/03 00:41:28;;;;;;;8.23;5.87;;;;;;;21.54;59.16;100135.41;4335383;33;34737;-85
2022/07/03 00:44:14;;;;;;;9.88;5.70;;;;;;;21.56;58.78;100141.38;4337843;33;35033;-85
2022/07/03 00:47:03;;;;;;;9.68;5.80;;;;;;;21.59;59.04;100141.81;4325302;33;35032;-86
2022/07/03 00:49:54;;;;;;;8.75;5.53;;;;;;;21.36;59.39;100137.03;4326217;33;34604;-85
2022/07/03 00:52:47;;;;;;;9.23;6.10;;;;;;;20.93;61.04;100133.47;4325249;33;34603;-85
2022/07/03 00:55:34;;;;;;;9.23;6.20;;;;;;;20.88;61.02;100128.19;4322348;33;34622;-86
2022/07/03 00:58:20;;;;;;;10.73;6.03;;;;;;;21.30;60.16;100135.72;4322690;33;33495;-86
2022/07/03 01:01:08;;;;;;;9.82;5.90;;;;;;;20.72;62.06;100127.47;4338435;33;35527;-85
2022/07/03 01:04:16;;;;;;;10.30;6.10;;;;;;;20.56;63.39;100122.81;4335353;33;33799;-86
2022/07/03 01:07:06;;;;;;;10.60;6.95;;;;;;;20.97;61.01;100123.19;4333296;33;34781;-86
2022/07/03 01:10:04;;;;;;;9.38;6.90;;;;;;;21.09;60.76;100123.03;4313351;33;35003;-86
2022/07/03 01:13:03;;;;;;;13.00;6.40;;;;;;;21.31;60.78;100115.03;4322358;33;34648;-86
2022/07/03 01:16:01;;;;;;;9.48;5.93;;;;;;;21.33;60.60;100116.28;4341249;33;34142;-85
2022/07/03 01:18:54;;;;;;;12.07;6.32;;;;;;;20.88;61.72;100120.62;4324235;33;34715;-85
2022/07/03 01:22:12;;;;;;;9.10;6.30;;;;;;;21.21;60.44;100112.88;4327873;33;37904;-85
2022/07/03 01:25:15;;;;;;;10.13;5.95;;;;;;;20.77;61.87;100114.06;4339152;33;35279;-86
2022/07/03 01:28:11;;;;;;;8.60;5.70;;;;;;;20.59;63.52;100124.84;4338631;33;34992;-85
2022/07/03 01:31:01;;;;;;;10.40;6.68;;;;;;;20.36;64.25;100115.59;4323458;33;34376;-85
2022/07/03 01:33:51;;;;;;;9.00;6.80;;;;;;;20.83;62.35;100114.56;4324960;33;36032;-85
2022/07/03 01:36:43;;;;;;;8.77;6.32;;;;;;;20.83;62.00;100107.03;4323225;33;34627;-86
2022/07/03 01:39:30;;;;;;;11.63;5.95;;;;;;;20.98;61.20;100108.09;4329430;33;34109;-86
2022/07/03 01:42:41;;;;;;;10.15;6.60;;;;;;;21.00;61.86;100114.09;4326925;33;35483;-86
2022/07/03 01:45:28;;;;;;;10.30;6.47;;;;;;;20.87;62.00;100104.31;4333205;33;35018;-85
2022/07/03 01:48:16;;;;;;;9.80;6.70;;;;;;;20.94;62.03;100101.66;4329528;33;34636;-86
2022/07/03 01:51:03;;;;;;;9.00;6.80;;;;;;;20.84;62.90;100105.84;4326600;33;34869;-85
2022/07/03 01:53:50;;;;;;;9.68;6.80;;;;;;;20.59;63.81;100110.12;4326942;33;35620;-85
2022/07/03 01:56:37;;;;;;;12.52;7.05;;;;;;;20.47;64.05;100107.47;4339390;32;36027;-85
2022/07/03 01:59:23;;;;;;;11.38;6.80;;;;;;;20.66;63.21;100102.72;4337135;33;34573;-85
2022/07/03 02:02:21;;;;;;;9.15;6.62;;;;;;;20.69;63.34;100097.59;4335489;33;33801;-85
2022/07/03 02:05:32;;;;;;;10.55;7.15;;;;;;;20.23;65.12;100106.56;4333181;33;34791;-84
2022/07/03 02:08:35;;;;;;;10.15;7.32;;;;;;;19.75;66.83;100103.09;4332463;33;35618;-84
2022/07/03 02:11:24;;;;;;;11.32;7.03;;;;;;;19.69;67.85;100105.34;4324006;33;34563;-83
2022/07/03 02:14:17;;;;;;;9.27;6.85;;;;;;;20.60;64.12;100109.75;4328562;33;35025;-84
2022/07/03 02:17:08;;;;;;;9.32;7.12;;;;;;;20.00;65.81;100110.03;4323010;33;35396;-84
2022/07/03 02:20:02;;;;;;;14.32;7.90;;;;;;;20.10;65.92;100108.69;4316407;33;34495;-84
2022/07/03 02:22:56;;;;;;;10.30;7.60;;;;;;;18.91;71.59;100109.72;4324788;33;34396;-84
2022/07/03 02:25:44;;;;;;;10.73;7.22;;;;;;;19.06;71.89;100114.50;4332089;33;34218;-84
2022/07/03 02:28:41;;;;;;;11.45;7.43;;;;;;;19.29;70.74;100114.69;4322422;33;34975;-85
2022/07/03 02:31:27;;;;;;;13.13;7.43;;;;;;;19.75;68.33;100101.16;4323607;33;34883;-85
2022/07/03 02:34:17;;;;;;;11.70;7.18;;;;;;;19.40;69.20;100108.59;4315437;33;34166;-84
2022/07/03 02:37:14;;;;;;;10.88;7.35;;;;;;;18.26;76.54;100115.41;4334620;33;34801;-85
2022/07/03 02:40:08;;;;;;;11.02;7.60;;;;;;;18.41;75.14;100117.44;4315424;33;35632;-85
2022/07/03 02:43:01;;;;;;;11.32;7.60;;;;;;;17.95;78.70;100116.84;4323981;33;34892;-84
2022/07/03 02:46:01;;;;;;;12.00;7.95;;;;;;;17.68;80.19;100117.56;4334353;33;35362;-85
2022/07/03 02:48:48;;;;;;;13.07;7.90;;;;;;;18.40;77.46;100124.13;4323138;33;35737;-84
2022/07/03 02:51:37;;;;;;;10.95;7.93;;;;;;;18.09;79.48;100129.53;4323349;33;35316;-85
2022/07/03 02:54:24;;;;;;;11.02;7.70;;;;;;;18.07;79.98;100131.84;4324101;33;34705;-85
2022/07/03 02:57:13;;;;;;;9.65;7.28;;;;;;;18.91;74.89;100120.03;4325168;33;35486;-85
2022/07/03 03:00:06;;;;;;;10.57;7.40;;;;;;;19.18;73.81;100121.97;4324988;33;33998;-85
2022/07/03 03:02:55;;;;;;;11.15;7.87;;;;;;;19.62;71.09;100116.28;4338259;33;34766;-84
2022/07/03 03:05:55;;;;;;;10.63;7.53;;;;;;;19.47;72.05;100114.34;4339605;33;34938;-84
2022/07/03 03:08:49;;;;;;;11.12;7.57;;;;;;;19.71;70.80;100107.78;4337410;33;35524;-84
2022/07/03 03:11:42;;;;;;;11.57;7.90;;;;;;;20.02;69.13;100109.69;4324130;33;34059;-84
2022/07/03 03:14:39;;;;;;;9.82;6.90;;;;;;;19.53;70.67;100121.25;4334046;33;34337;-84
2022/07/03 03:17:29;;;;;;;13.02;7.68;;;;;;;19.64;71.31;100127.88;4324794;33;34681;-84
2022/07/03 03:20:16;;;;;;;10.15;7.32;;;;;;;19.43;70.86;100124.56;4324520;33;35615;-84
2022/07/03 03:23:24;;;;;;;9.73;7.30;;;;;;;19.16;72.86;100124.28;4325084;33;34015;-84
2022/07/03 03:26:11;;;;;;;10.80;7.72;;;;;;;19.49;71.83;100112.00;4325780;33;34349;-85
2022/07/03 03:28:59;;;;;;;10.63;7.32;;;;;;;19.71;70.65;100116.94;4323173;33;34955;-84
2022/07/03 03:31:45;;;;;;;10.77;6.90;;;;;;;19.89;69.31;100113.75;4323915;33;34664;-85
2022/07/03 03:34:32;;;;;;;10.48;6.62;;;;;;;19.80;70.18;100102.03;4335419;33;32891;-84
2022/07/03 03:37:18;;;;;;;11.30;6.93;;;;;;;19.92;69.30;100104.69;4323350;33;35266;-85
2022/07/03 03:40:05;;;;;;;11.98;8.00;;;;;;;20.00;69.19;100100.91;4338331;33;35025;-85
2022/07/03 03:42:51;;;;;;;10.70;7.25;;;;;;;19.92;69.72;100107.47;4322079;33;34751;-85
2022/07/03 03:45:38;;;;;;;9.88;7.12;;;;;;;20.00;69.52;100100.91;4336071;33;34386;-85
2022/07/03 03:48:26;;;;;;;10.25;7.18;;;;;;;20.13;68.72;100093.25;4336975;33;34301;-85
2022/07/03 03:51:13;;;;;;;11.75;7.25;;;;;;;20.20;68.46;100096.97;4321478;33;34637;-85
2022/07/03 03:53:59;;;;;;;14.90;8.10;;;;;;;20.06;69.29;100102.22;4315860;33;34188;-84
2022/07/03 03:56:46;;;;;;;11.60;8.15;;;;;;;19.87;69.81;100097.44;4336904;33;34146;-84
2022/07/03 03:59:35;;;;;;;11.68;8.25;;;;;;;18.72;77.02;100118.69;4333959;33;35577;-84
2022/07/03 04:02:21;;;;;;;12.70;8.18;;;;;;;18.55;78.21;100121.78;4322244;33;34969;-84
2022/07/03 04:05:08;;;;;;;11.50;8.27;;;;;;;18.66;78.29;100117.34;4337683;33;34663;-83
2022/07/03 04:07:56;;;;;;;13.82;8.05;;;;;;;17.58;85.14;100115.25;4338141;33;35654;-82
2022/07/03 04:10:43;;;;;;;14.27;8.07;;;;;;;17.09;90.36;100132.63;4324942;33;33491;-83
2022/07/03 04:13:29;;;;;;;12.85;7.93;;;;;;;16.81;93.81;100122.16;4333236;33;34886;-83
2022/07/03 04:16:16;;;;;;;11.75;8.15;;;;;;;17.49;91.49;100130.00;4326364;33;34718;-82
2022/07/03 04:19:02;;;;;;;11.70;8.27;;;;;;;18.36;85.57;100133.53;4327932;33;35231;-84
2022/07/03 04:21:51;;;;;;;13.45;7.37;;;;;;;17.60;89.83;100129.56;4322024;33;34334;-83
2022/07/03 04:24:38;;;;;;;11.80;7.60;;;;;;;18.77;84.15;100126.81;4336725;33;36082;-83
2022/07/03 04:27:24;;;;;;;11.60;7.30;;;;;;;19.52;79.81;100116.81;4325313;33;34160;-83
2022/07/03 04:30:30;;;;;;;11.18;8.10;;;;;;;19.88;77.28;100109.38;4332557;33;33991;-84
2022/07/03 04:33:16;;;;;;;11.52;7.82;;;;;;;20.09;75.90;100112.63;4327342;33;32848;-84
2022/07/03 04:36:04;;;;;;;11.98;7.87;;;;;;;20.03;75.98;100104.94;4316202;33;34516;-84
2022/07/03 04:38:51;;;;;;;10.75;7.87;;;;;;;19.68;76.73;100109.31;4322697;33;35457;-84
2022/07/03 04:41:37;;;;;;;11.70;8.00;;;;;;;19.20;80.12;100113.25;4332105;33;34167;-84
2022/07/03 04:44:24;;;;;;;10.00;7.72;;;;;;;19.58;77.79;100098.75;4336132;33;35151;-85
2022/07/03 04:47:11;;;;;;;10.95;7.57;;;;;;;20.18;75.12;100102.13;4325637;33;35018;-85
2022/07/03 04:49:57;;;;;;;13.50;8.02;;;;;;;20.83;72.97;100097.84;4336046;33;35595;-85
2022/07/03 04:52:44;;;;;;;12.68;7.82;;;;;;;20.99;71.63;100104.13;4336004;33;34184;-85
2022/07/03 04:55:30;;;;;;;14.55;7.90;;;;;;;21.26;70.97;100095.84;4339615;33;34632;-85
2022/07/03 04:58:17;;;;;;;16.95;9.60;;;;;;;21.26;70.89;100101.41;4327865;33;34995;-84
2022/07/03 05:01:03;;;;;;;10.98;8.38;;;;;;;21.37;70.58;100084.91;4336052;33;34604;-84
2022/07/03 05:03:50;;;;;;;11.32;7.47;;;;;;;21.47;70.04;100085.09;4336466;33;34090;-84
2022/07/03 05:06:36;;;;;;;12.85;8.13;;;;;;;21.11;70.71;100090.00;4335536;33;35569;-83
2022/07/03 05:09:22;;;;;;;11.43;8.10;;;;;;;20.26;75.02;100086.34;4337494;33;34934;-84
2022/07/03 05:12:09;;;;;;;16.70;7.18;;;;;;;20.54;74.36;100088.94;4335658;33;34481;-85
2022/07/03 05:14:55;;;;;;;11.07;7.20;;;;;;;21.30;70.83;100077.22;4335016;33;34145;-85
2022/07/03 05:17:42;;;;;;;10.73;7.65;;;;;;;21.85;68.64;100086.03;4327765;33;34649;-85
2022/07/03 05:20:28;;;;;;;11.43;7.93;;;;;;;21.83;68.68;100080.06;4336688;33;35080;-85
2022/07/03 05:23:14;;;;;;;11.45;7.87;;;;;;;22.33;66.46;100077.94;4336859;33;33311;-85
2022/07/03 05:26:00;;;;;;;14.13;7.70;;;;;;;22.16;66.75;100075.72;4336077;33;34218;-84
2022/07/03 05:28:47;;;;;;;14.30;7.78;;;;;;;22.03;67.43;100072.38;4340191;33;35718;-78
2022/07/03 05:31:33;;;;;;;12.23;8.73;;;;;;;22.39;66.33;100079.22;4338266;33;36006;-79
2022/07/03 05:34:19;;;;;;;11.23;7.40;;;;;;;22.99;64.18;100083.09;4336845;33;35618;-79
2022/07/03 05:37:05;;;;;;;11.05;7.72;;;;;;;22.58;64.83;100081.03;4340715;33;34913;-78
2022/07/03 05:39:51;;;;;;;10.32;7.47;;;;;;;22.74;64.64;100089.22;4333039;33;34743;-79
2022/07/03 05:42:38;;;;;;;10.75;7.15;;;;;;;22.84;63.14;100077.34;4344832;33;91837;-78
2022/07/03 05:45:25;;;;;;;11.48;7.25;;;;;;;22.38;65.31;100088.78;4347312;33;34887;-78
2022/07/03 05:48:10;;;;;;;10.52;7.35;;;;;;;23.32;63.04;100085.78;4344525;33;35212;-78
2022/07/03 05:50:57;;;;;;;10.80;7.43;;;;;;;22.33;66.04;100085.53;4333496;33;34652;-79
2022/07/03 05:53:43;;;;;;;8.68;6.97;;;;;;;23.10;64.08;100089.59;4340343;33;35680;-80
2022/07/03 05:56:30;;;;;;;11.65;7.68;;;;;;;23.18;62.96;100088.47;4341914;33;35065;-79
2022/07/03 05:59:16;;;;;;;10.43;7.95;;;;;;;23.05;62.93;100082.38;4332746;33;34088;-80
2022/07/03 06:02:02;;;;;;;11.63;7.07;;;;;;;22.74;63.54;100083.63;4333712;33;35627;-80
2022/07/03 06:04:49;;;;;;;10.13;7.28;;;;;;;22.92;63.64;100089.38;4341353;33;34990;-80
2022/07/03 06:07:35;;;;;;;10.38;7.25;;;;;;;22.98;63.51;100095.47;4338123;33;34945;-79
2022/07/03 06:10:22;;;;;;;9.88;6.87;;;;;;;23.77;62.20;100088.56;4340973;33;34400;-79
2022/07/03 06:13:08;;;;;;;8.68;6.55;;;;;;;22.87;63.09;100098.91;4339131;33;34574;-79
2022/07/03 06:15:54;;;;;;;9.98;6.82;;;;;;;22.87;63.63;100104.50;4342962;33;36080;-79
2022/07/03 06:18:41;;;;;;;8.13;6.32;;;;;;;23.19;62.80;100104.03;4339435;33;35470;-79
2022/07/03 06:21:27;;;;;;;10.45;7.37;;;;;;;24.21;59.28;100108.00;4327801;33;34061;-79
2022/07/03 06:24:14;;;;;;;8.93;7.00;;;;;;;23.43;60.92;100113.84;4338525;33;35589;-79
2022/07/03 06:27:01;;;;;;;10.70;6.65;;;;;;;23.78;60.15;100110.53;4341413;33;34992;-79
2022/07/03 06:29:49;;;;;;;9.48;7.22;;;;;;;24.27;59.20;100110.44;4329387;33;34536;-80
2022/07/03 06:32:36;;;;;;;10.60;7.15;;;;;;;24.45;58.78;100100.94;4322429;33;35109;-80
2022/07/03 06:35:21;;;;;;;10.05;7.78;;;;;;;24.74;57.58;100105.84;4341185;33;34480;-79
2022/07/03 06:38:10;;;;;;;9.88;7.80;;;;;;;24.77;56.02;100093.84;4343358;32;34979;-79
2022/07/03 06:40:56;;;;;;;9.82;7.12;;;;;;;24.32;58.05;100101.66;4338320;33;35453;-78
2022/07/03 06:43:43;;;;;;;9.18;7.32;;;;;;;24.21;58.99;100090.41;4329303;33;34190;-78
2022/07/03 06:46:29;;;;;;;10.07;7.35;;;;;;;24.31;57.90;100095.25;4341417;33;34654;-78
2022/07/03 06:49:15;;;;;;;11.43;7.40;;;;;;;25.01;56.15;100093.06;4341996;33;34666;-78
2022/07/03 06:52:02;;;;;;;10.65;8.20;;;;;;;25.39;56.02;100090.75;4338892;33;34671;-78
2022/07/03 06:54:48;;;;;;;10.15;7.47;;;;;;;25.33;54.34;100078.31;4338142;33;34268;-78
2022/07/03 06:57:35;;;;;;;10.98;7.15;;;;;;;25.02;56.82;100086.28;4340331;33;34652;-79
2022/07/03 07:00:21;;;;;;;10.93;7.82;;;;;;;25.65;56.65;100080.31;4342704;33;35978;-78
2022/07/03 07:03:07;;;;;;;10.88;7.75;;;;;;;25.63;52.96;100077.91;4334986;33;35008;-78
2022/07/03 07:05:54;;;;;;;9.80;7.97;;;;;;;25.36;54.21;100080.34;4334153;33;35360;-78
2022/07/03 07:08:40;;;;;;;10.07;7.90;;;;;;;25.85;53.21;100072.28;4332864;33;34690;-78
2022/07/03 07:11:27;;;;;;;10.20;7.80;;;;;;;25.72;54.98;100074.69;4333897;33;36050;-79
2022/07/03 07:14:13;;;;;;;9.55;7.40;;;;;;;26.03;54.59;100065.41;4340622;33;35454;-80
2022/07/03 07:17:00;;;;;;;10.52;8.02;;;;;;;26.36;54.03;100071.72;4334103;33;34228;-78
2022/07/03 07:19:46;;;;;;;10.82;7.97;;;;;;;26.30;53.01;100073.34;4337081;33;34889;-79
2022/07/03 07:22:33;;;;;;;9.20;7.32;;;;;;;26.77;52.57;100071.13;4333954;33;35979;-79
2022/07/03 07:25:20;;;;;;;9.52;8.00;;;;;;;26.83;50.83;100072.28;4322570;33;35543;-78
2022/07/03 07:28:06;;;;;;;10.40;8.55;;;;;;;26.91;52.13;100082.28;4336385;33;35098;-79
2022/07/03 07:30:57;;;;;;;9.02;7.15;;;;;;;25.28;52.68;100075.94;4348728;33;34759;-79
2022/07/03 07:33:43;;;;;;;12.98;8.63;;;;;;;26.17;51.75;100075.00;4348695;33;35095;-79
2022/07/03 07:36:31;;;;;;;11.93;7.32;;;;;;;25.95;52.02;100077.84;4337575;33;35552;-79
2022/07/03 07:39:17;;;;;;;10.93;7.70;;;;;;;25.20;54.99;100072.31;4348108;33;35058;-79
2022/07/03 07:42:04;;;;;;;10.90;7.78;;;;;;;25.51;53.54;100081.13;4322604;33;34652;-79
2022/07/03 07:44:51;;;;;;;13.95;8.05;;;;;;;26.33;53.86;100075.34;4322800;33;35085;-80
2022/07/03 07:47:37;;;;;;;10.32;7.65;;;;;;;26.75;51.42;100073.53;4333983;33;34667;-81
2022/07/03 07:50:23;;;;;;;10.18;7.78;;;;;;;27.22;50.48;100079.69;4333805;33;34273;-81
2022/07/03 07:53:10;;;;;;;8.45;7.37;;;;;;;27.26;49.47;100077.63;4346333;33;34753;-81
2022/07/03 07:55:56;;;;;;;11.85;8.27;;;;;;;27.44;49.19;100087.97;4314503;33;34909;-81
2022/07/03 07:58:42;;;;;;;10.52;7.82;;;;;;;27.31;48.58;100088.44;4339925;33;34892;-81
2022/07/03 08:07:38;;;;;;;11.50;7.80;;;;;;;27.23;47.93;100089.72;4342985;33;35049;-82
2022/07/03 08:10:25;;;;;;;10.10;8.20;;;;;;;27.54;49.06;100090.66;4341789;33;34624;-82
2022/07/03 08:13:13;;;;;;;9.00;7.22;;;;;;;27.95;47.26;100081.44;4340720;33;35057;-82
2022/07/03 08:15:59;;;;;;;9.02;7.80;;;;;;;27.45;47.12;100086.72;4325023;33;35254;-81
2022/07/03 08:18:45;;;;;;;9.48;7.55;;;;;;;28.20;46.64;100083.97;4343873;33;35019;-81
2022/07/03 08:21:32;;;;;;;9.93;8.20;;;;;;;28.27;45.87;100080.28;4327327;33;35471;-81
2022/07/03 08:24:18;;;;;;;10.25;7.90;;;;;;;28.56;45.30;100085.56;4335378;33;34113;-80
2022/07/03 08:27:05;;;;;;;9.07;8.00;;;;;;;28.93;45.67;100079.00;4342278;33;34765;-81
2022/07/03 08:29:52;;;;;;;9.60;8.57;;;;;;;28.32;45.48;100091.09;4325122;33;35165;-82
2022/07/03 08:32:41;;;;;;;11.18;7.85;;;;;;;27.49;47.30;100085.50;4323411;33;34633;-82
2022/07/03 08:35:28;;;;;;;13.02;8.32;;;;;;;27.79;46.85;100082.00;4333812;33;35180;-82
2022/07/03 08:38:14;;;;;;;10.40;8.43;;;;;;;28.56;47.97;100085.56;4323954;33;35519;-82
2022/07/03 08:41:03;;;;;;;9.43;8.13;;;;;;;29.11;45.70;100071.06;4335393;33;35072;-83
2022/07/03 08:43:51;;;;;;;10.90;8.18;;;;;;;29.21;45.14;100083.44;4334462;33;34741;-82
2022/07/03 08:46:39;;;;;;;9.50;7.70;;;;;;;29.52;43.51;100078.47;4324399;33;34128;-83
2022/07/03 08:49:26;;;;;;;10.88;8.02;;;;;;;29.35;42.79;100079.59;4326725;33;34847;-82
2022/07/03 08:52:12;;;;;;;11.45;7.55;;;;;;;29.44;42.18;100081.84;4328294;33;35890;-82
2022/07/03 08:54:59;;;;;;;11.18;8.57;;;;;;;29.06;42.44;100080.03;4349904;33;34883;-82
2022/07/03 08:57:47;;;;;;;11.18;8.38;;;;;;;29.43;41.75;100075.41;4343882;33;35389;-75
2022/07/03 09:00:34;;;;;;;9.48;7.75;;;;;;;29.88;42.62;100072.19;4324321;33;34200;-75
2022/07/03 09:03:21;;;;;;;10.10;7.80;;;;;;;30.09;41.43;100067.37;4327324;33;37297;-75
2022/07/03 09:06:08;;;;;;;8.85;7.68;;;;;;;30.10;42.79;100064.09;4337202;33;34717;-75
2022/07/03 09:08:55;;;;;;;10.23;8.48;;;;;;;30.58;41.13;100064.75;4329536;33;34064;-75
2022/07/03 09:11:42;;;;;;;8.07;6.57;;;;;;;29.26;41.22;100065.19;4319959;33;34684;-75
2022/07/03 09:14:29;;;;;;;8.05;6.68;;;;;;;29.52;38.99;100061.53;4320299;33;34538;-75
2022/07/03 09:17:15;;;;;;;7.45;6.60;;;;;;;29.28;37.85;100063.53;4331792;32;34677;-75
2022/07/03 09:20:05;;;;;;;8.35;6.87;;;;;;;30.20;37.78;100060.25;4332993;33;34237;-75
2022/07/03 09:22:52;;;;;;;12.55;7.12;;;;;;;29.45;38.36;100056.00;4333742;33;34808;-75
2022/07/03 09:25:51;;;;;;;10.45;7.15;;;;;;;29.21;39.01;100046.75;4331643;33;35169;-75
2022/07/03 09:28:51;;;;;;;7.75;6.43;;;;;;;29.93;37.28;100056.78;4332378;33;34758;-75
2022/07/03 09:31:37;;;;;;;8.70;6.45;;;;;;;29.52;37.39;100050.25;4332389;33;34205;-75
2022/07/03 09:34:26;;;;;;;10.23;5.90;;;;;;;29.88;36.42;100045.97;4337245;33;35369;-75
2022/07/03 09:37:15;;;;;;;10.55;6.65;;;;;;;30.66;34.34;100037.91;4327386;33;35356;-74
2022/07/03 09:40:02;;;;;;;10.85;6.93;;;;;;;30.63;37.31;100030.31;4329004;33;35538;-74
2022/07/03 09:43:02;;;;;;;9.75;6.37;;;;;;;30.57;35.72;100026.38;4322111;33;34171;-74
2022/07/03 09:45:51;;;;;;;9.00;6.22;;;;;;;30.20;37.20;100019.91;4336791;33;34724;-75
2022/07/03 09:48:39;;;;;;;8.30;6.60;;;;;;;30.46;36.13;100027.44;4335138;33;35970;-75
2022/07/03 09:51:28;;;;;;;8.05;6.20;;;;;;;30.24;36.20;100021.44;4333980;32;34954;-74
2022/07/03 09:54:15;;;;;;;8.95;6.82;;;;;;;30.21;36.01;100021.50;4335584;33;33877;-75
2022/07/03 09:57:02;;;;;;;9.20;6.80;;;;;;;30.80;37.41;100017.78;4325813;33;33693;-74
2022/07/03 09:59:49;;;;;;;7.75;5.95;;;;;;;29.61;37.17;100012.97;4321779;33;34838;-73
2022/07/03 10:03:04;;;;;;;8.32;5.97;;;;;;;30.21;35.80;100007.34;4336177;33;35970;-73
2022/07/03 10:05:50;;;;;;;8.93;7.07;;;;;;;30.19;36.34;100019.09;4325380;33;34551;-74
2022/07/03 10:08:41;;;;;;;8.18;6.30;;;;;;;30.35;35.95;100021.22;4322215;33;34447;-74
2022/07/03 10:11:28;;;;;;;8.07;6.10;;;;;;;31.01;35.29;100013.63;4322198;33;35924;-74
2022/07/03 10:14:19;;;;;;;7.93;5.90;;;;;;;30.95;34.60;100008.97;4323343;33;34521;-73
2022/07/03 10:17:06;;;;;;;13.00;5.60;;;;;;;30.96;33.71;100013.37;4338850;33;35117;-74
2022/07/03 10:20:00;;;;;;;7.90;5.62;;;;;;;30.82;34.87;100004.00;4326208;33;35317;-74
2022/07/03 10:22:47;;;;;;;6.70;5.40;;;;;;;30.55;34.61;99997.75;4325376;33;36008;-74
2022/07/03 10:25:34;;;;;;;7.53;5.35;;;;;;;30.63;32.81;99996.38;4335494;33;35204;-74
2022/07/03 10:28:21;;;;;;;8.95;4.80;;;;;;;30.10;33.65;99993.47;4321787;33;34164;-74
2022/07/03 10:31:08;;;;;;;9.75;4.87;;;;;;;31.24;33.33;99997.72;4326015;33;35526;-74
2022/07/03 10:33:55;;;;;;;8.82;5.03;;;;;;;31.67;32.40;99991.72;4321974;33;34980;-74
2022/07/03 10:36:42;;;;;;;7.70;5.30;;;;;;;31.29;32.72;99997.19;4338560;33;35226;-75
2022/07/03 10:39:28;;;;;;;8.50;4.70;;;;;;;30.99;33.08;99995.50;4328018;33;33889;-75
2022/07/03 10:45:27;;;;;;;7.15;4.40;;;;;;;31.20;32.97;99986.50;4326676;33;34923;-72
2022/07/03 10:48:13;;;;;;;8.48;4.32;;;;;;;31.59;30.63;99981.81;4331194;33;34864;-73
2022/07/03 10:51:13;;;;;;;7.45;4.18;;;;;;;31.79;31.45;99973.97;4314292;33;35117;-73
2022/07/03 10:54:16;;;;;;;5.82;3.97;;;;;;;32.05;30.20;99974.09;4336535;33;35415;-75
2022/07/03 10:57:05;;;;;;;5.00;4.10;;;;;;;30.95;33.06;99966.53;4323016;33;34447;-73
2022/07/03 10:59:51;;;;;;;10.43;4.57;;;;;;;31.26;31.56;99976.22;4327967;33;36131;-73
2022/07/03 11:02:43;;;;;;;6.15;4.60;;;;;;;31.50;31.94;99973.97;4333333;33;35137;-73
2022/07/03 11:05:37;;;;;;;8.73;4.60;;;;;;;31.55;31.05;99964.94;4320478;33;34121;-72
2022/07/03 11:08:23;;;;;;;10.93;4.28;;;;;;;31.81;31.86;99970.69;4328200;33;34874;-73
2022/07/03 11:11:58;;;;;;;6.05;4.25;;;;;;;31.92;31.51;99959.06;4333490;33;34088;-77
2022/07/03 11:14:45;;;;;;;9.02;4.60;;;;;;;32.21;30.83;99956.16;4334772;33;32663;-76
2022/07/03 11:17:31;;;;;;;7.32;4.75;;;;;;;31.36;33.34;99955.37;4325116;33;35530;-77
2022/07/03 11:20:26;;;;;;;6.47;4.90;;;;;;;31.70;32.92;99962.50;4312201;33;35293;-77
2022/07/03 11:23:19;;;;;;;8.95;5.12;;;;;;;31.86;31.92;99966.50;4333033;33;34658;-76
2022/07/03 11:26:08;;;;;;;6.82;4.95;;;;;;;31.45;32.62;99957.56;4328585;33;33927;-76
2022/07/03 11:28:55;;;;;;;6.18;4.37;;;;;;;31.86;32.00;99958.03;4336292;33;34364;-77
2022/07/03 11:31:41;;;;;;;8.40;4.90;;;;;;;32.33;31.19;99946.09;4329892;33;35867;-77
2022/07/03 11:34:42;;;;;;;8.45;5.03;;;;;;;32.50;31.51;99929.78;4319221;33;31774;-77
2022/07/03 11:37:30;;;;;;;9.35;5.22;;;;;;;33.06;31.40;99938.44;4327607;33;33091;-77
2022/07/03 11:40:18;;;;;;;6.85;4.82;;;;;;;32.62;31.56;99934.66;4335463;33;33682;-77
2022/07/03 11:43:05;;;;;;;6.05;5.10;;;;;;;32.96;30.66;99931.09;4334866;33;34769;-76
2022/07/03 11:45:51;;;;;;;7.80;5.32;;;;;;;33.94;28.92;99920.69;4310758;33;34842;-77
2022/07/03 11:48:38;;;;;;;9.30;4.90;;;;;;;33.00;30.69;99923.25;4337159;33;35402;-78
2022/07/03 11:51:24;;;;;;;8.90;5.00;;;;;;;33.69;30.20;99918.78;4330556;33;34053;-77
2022/07/03 11:54:10;;;;;;;6.50;5.00;;;;;;;34.01;30.18;99918.38;4333845;33;35025;-76
2022/07/03 11:56:57;;;;;;;6.72;4.57;;;;;;;34.47;28.76;99907.22;4329545;33;35614;-77
2022/07/03 11:59:44;;;;;;;7.15;4.68;;;;;;;34.61;29.85;99908.72;4317547;33;33783;-77
2022/07/03 12:02:30;;;;;;;7.65;4.93;;;;;;;34.83;28.17;99910.63;4333668;33;35485;-77
2022/07/03 12:05:16;;;;;;;8.15;4.93;;;;;;;34.23;28.79;99900.47;4333656;33;35956;-77
2022/07/03 12:08:08;;;;;;;5.75;4.62;;;;;;;33.56;30.06;99896.16;4323787;33;33239;-76
2022/07/03 12:11:06;;;;;;;5.60;4.40;;;;;;;33.18;29.59;99888.56;4335093;33;33757;-76
2022/07/03 12:13:52;;;;;;;8.38;4.72;;;;;;;32.30;30.73;99898.78;4322069;33;34561;-76
2022/07/03 12:16:39;;;;;;;6.47;4.60;;;;;;;32.70;29.66;99896.28;4320352;33;34338;-77
2022/07/03 12:19:25;;;;;;;7.47;4.70;;;;;;;33.07;30.48;99883.28;4334950;33;34756;-77
2022/07/03 12:22:12;;;;;;;11.55;6.87;;;;;;;32.73;30.29;99886.06;4331495;33;33963;-76
2022/07/03 12:25:04;;;;;;;6.78;4.62;;;;;;;33.20;29.14;99873.91;4322983;33;34568;-76
2022/07/03 12:27:50;;;;;;;9.73;5.82;;;;;;;33.65;28.22;99870.63;4325187;33;34802;-76
2022/07/03 12:30:36;;;;;;;8.68;3.40;;;;;;;34.54;27.02;99869.13;4321109;33;34157;-76
2022/07/03 12:33:24;;;;;;;8.70;5.75;;;;;;;34.33;26.40;99867.97;4333025;33;33708;-76
2022/07/03 12:36:10;;;;;;;5.00;3.03;;;;;;;33.63;27.34;99866.69;4323254;32;35693;-75
2022/07/03 12:38:59;;;;;;;7.03;3.47;;;;;;;32.38;27.88;99864.09;4330925;33;35060;-75
2022/07/03 12:41:45;;;;;;;5.65;2.95;;;;;;;33.60;27.00;99865.56;4341939;33;34507;-76
2022/07/03 12:44:31;;;;;;;6.68;3.08;;;;;;;34.05;26.67;99864.25;4319902;33;34367;-76
2022/07/03 12:47:18;;;;;;;3.28;2.55;;;;;;;33.90;27.08;99868.84;4330659;33;34703;-75
2022/07/03 12:50:06;;;;;;;6.50;3.00;;;;;;;33.66;26.36;99865.75;4318384;33;34909;-77
2022/07/03 12:52:57;;;;;;;10.88;4.55;;;;;;;34.32;26.22;99855.00;4334674;33;34572;-76
2022/07/03 12:55:44;;;;;;;6.95;3.10;;;;;;;34.15;25.65;99856.53;4331623;33;34865;-76
2022/07/03 13:01:38;;;;;;;9.20;3.08;;;;;;;33.68;27.30;99846.97;4316488;33;35065;-76
2022/07/03 13:04:36;;;;;;;7.37;4.75;;;;;;;33.12;26.86;99859.97;4327568;33;35497;-77
2022/07/03 13:07:22;;;;;;;6.28;3.10;;;;;;;34.22;26.16;99850.56;4331013;33;33548;-75
2022/07/03 13:10:09;;;;;;;6.43;3.97;;;;;;;33.05;27.36;99850.94;4336726;33;34206;-76
2022/07/03 13:12:57;;;;;;;6.10;3.15;;;;;;;34.51;25.38;99838.00;4325935;33;35065;-76
2022/07/03 13:15:43;;;;;;;6.93;3.05;;;;;;;33.84;26.44;99843.09;4323160;33;35470;-75